sensor_id;sensor_type;location;lat;lon;timestamp;P1;durP1;ratioP1;P2;durP2;ratioP2
15938;SDS011;8068;51.322;9.450;2023-04-01T00:01:57;3.50;;;1.40;;
15938;SDS011;8068;51.322;9.450;2023-04-01T00:04:23;2.73;;;1.53;;
15938;SDS011;8068;51.322;9.450;2023-04-01T00:06:49;2.67;;;1.27;;
15938;SDS011;8068;51.322;9.450;2023-04-01T00:09:17;1.77;;;1.00;;
15938;SDS011;8068;51.322;9.450;2023-04-01T00:11:43;4.23;;;1.43;;
15938;SDS011;8068;51.322;9.450;2023-04-01T00:14:11;2.87;;;1.20;;
15938;SDS011;8068;51.322;9.450;2023-04-01T00:16:37;3.57;;;1.20;;
15938;SDS011;8068;51.322;9.450;2023-04-01T00:19:03;3.37;;;1.23;;
15938;SDS011;8068;51.322;9.450;2023-04-01T00:21:29;1.57;;;0.97;;
15938;SDS011;8068;51.322;9.450;2023-04-01T00:23:56;3.00;;;1.60;;
15938;SDS011;8068;51.322;9.450;2023-04-01T00:26:22;5.50;;;1.63;;
15938;SDS011;8068;51.322;9.450;2023-04-01T00:28:48;2.60;;;1.30;;
15938;SDS011;8068;51.322;9.450;2023-04-01T00:31:15;1.87;;;0.70;;
15938;SDS011;8068;51.322;9.450;2023-04-01T00:33:41;2.17;;;1.00;;
15938;SDS011;8068;51.322;9.450;2023-04-01T00:36:11;3.67;;;1.53;;
15938;SDS011;8068;51.322;9.450;2023-04-01T00:38:38;2.50;;;1.47;;
15938;SDS011;8068;51.322;9.450;2023-04-01T00:41:04;3.23;;;1.30;;
15938;SDS011;8068;51.322;9.450;2023-04-01T00:43:31;3.83;;;1.20;;
15938;SDS011;8068;51.322;9.450;2023-04-01T00:45:57;5.60;;;1.80;;
15938;SDS011;8068;51.322;9.450;2023-04-01T00:48:24;1.50;;;1.20;;
15938;SDS011;8068;51.322;9.450;2023-04-01T00:50:56;3.97;;;1.43;;
15938;SDS011;8068;51.322;9.450;2023-04-01T00:53:25;3.57;;;1.13;;
15938;SDS011;8068;51.322;9.450;2023-04-01T00:59:00;3.60;;;1.30;;
15938;SDS011;8068;51.322;9.450;2023-04-01T01:01:28;3.07;;;1.20;;
15938;SDS011;8068;51.322;9.450;2023-04-01T01:03:55;2.90;;;1.40;;
15938;SDS011;8068;51.322;9.450;2023-04-01T01:09:01;3.63;;;1.03;;
15938;SDS011;8068;51.322;9.450;2023-04-01T01:11:33;2.90;;;1.63;;
15938;SDS011;8068;51.322;9.450;2023-04-01T01:17:04;1.63;;;1.17;;
15938;SDS011;8068;51.322;9.450;2023-04-01T01:28:30;2.33;;;1.00;;
15938;SDS011;8068;51.322;9.450;2023-04-01T01:36:55;3.50;;;1.27;;
15938;SDS011;8068;51.322;9.450;2023-04-01T01:39:25;3.03;;;1.23;;
15938;SDS011;8068;51.322;9.450;2023-04-01T01:41:53;2.23;;;1.13;;
15938;SDS011;8068;51.322;9.450;2023-04-01T01:44:21;2.10;;;1.33;;
15938;SDS011;8068;51.322;9.450;2023-04-01T01:46:48;1.40;;;1.10;;
15938;SDS011;8068;51.322;9.450;2023-04-01T01:49:14;6.27;;;2.33;;
15938;SDS011;8068;51.322;9.450;2023-04-01T01:51:42;3.10;;;1.00;;
15938;SDS011;8068;51.322;9.450;2023-04-01T01:54:15;5.30;;;1.97;;
15938;SDS011;8068;51.322;9.450;2023-04-01T01:56:43;5.90;;;1.77;;
15938;SDS011;8068;51.322;9.450;2023-04-01T01:59:11;5.27;;;1.70;;
15938;SDS011;8068;51.322;9.450;2023-04-01T02:01:39;1.57;;;1.47;;
15938;SDS011;8068;51.322;9.450;2023-04-01T02:04:09;5.43;;;1.87;;
15938;SDS011;8068;51.322;9.450;2023-04-01T02:06:37;3.37;;;1.30;;
15938;SDS011;8068;51.322;9.450;2023-04-01T02:09:05;5.30;;;1.30;;
15938;SDS011;8068;51.322;9.450;2023-04-01T02:11:55;2.43;;;1.30;;
15938;SDS011;8068;51.322;9.450;2023-04-01T02:14:41;3.20;;;1.40;;
15938;SDS011;8068;51.322;9.450;2023-04-01T02:17:14;3.10;;;1.33;;
15938;SDS011;8068;51.322;9.450;2023-04-01T02:19:47;3.40;;;1.70;;
15938;SDS011;8068;51.322;9.450;2023-04-01T02:22:28;3.50;;;1.80;;
15938;SDS011;8068;51.322;9.450;2023-04-01T02:24:58;2.63;;;1.53;;
15938;SDS011;8068;51.322;9.450;2023-04-01T02:27:26;2.77;;;1.27;;
15938;SDS011;8068;51.322;9.450;2023-04-01T02:29:52;3.80;;;1.40;;
15938;SDS011;8068;51.322;9.450;2023-04-01T02:32:19;4.83;;;1.20;;
15938;SDS011;8068;51.322;9.450;2023-04-01T02:34:46;5.70;;;1.70;;
15938;SDS011;8068;51.322;9.450;2023-04-01T02:37:13;5.00;;;1.60;;
15938;SDS011;8068;51.322;9.450;2023-04-01T02:39:40;3.40;;;1.63;;
15938;SDS011;8068;51.322;9.450;2023-04-01T02:42:06;5.00;;;1.93;;
15938;SDS011;8068;51.322;9.450;2023-04-01T02:44:32;2.77;;;1.60;;
15938;SDS011;8068;51.322;9.450;2023-04-01T02:46:58;4.97;;;2.27;;
15938;SDS011;8068;51.322;9.450;2023-04-01T02:49:24;3.77;;;1.60;;
15938;SDS011;8068;51.322;9.450;2023-04-01T02:51:50;3.43;;;1.60;;
15938;SDS011;8068;51.322;9.450;2023-04-01T02:54:18;2.50;;;1.90;;
15938;SDS011;8068;51.322;9.450;2023-04-01T02:56:44;3.30;;;1.43;;
15938;SDS011;8068;51.322;9.450;2023-04-01T02:59:11;3.17;;;1.40;;
15938;SDS011;8068;51.322;9.450;2023-04-01T03:01:37;1.70;;;1.17;;
15938;SDS011;8068;51.322;9.450;2023-04-01T03:04:04;4.23;;;1.27;;
15938;SDS011;8068;51.322;9.450;2023-04-01T03:06:30;2.50;;;1.47;;
15938;SDS011;8068;51.322;9.450;2023-04-01T03:08:56;1.70;;;1.60;;
15938;SDS011;8068;51.322;9.450;2023-04-01T03:11:22;4.10;;;1.40;;
15938;SDS011;8068;51.322;9.450;2023-04-01T03:13:48;3.47;;;1.10;;
15938;SDS011;8068;51.322;9.450;2023-04-01T03:16:15;6.87;;;1.40;;
15938;SDS011;8068;51.322;9.450;2023-04-01T03:18:41;2.80;;;1.23;;
15938;SDS011;8068;51.322;9.450;2023-04-01T03:21:17;1.93;;;1.20;;
15938;SDS011;8068;51.322;9.450;2023-04-01T03:23:47;2.83;;;1.10;;
15938;SDS011;8068;51.322;9.450;2023-04-01T03:26:14;3.30;;;1.20;;
15938;SDS011;8068;51.322;9.450;2023-04-01T03:28:40;3.20;;;1.50;;
15938;SDS011;8068;51.322;9.450;2023-04-01T03:31:07;3.20;;;1.37;;
15938;SDS011;8068;51.322;9.450;2023-04-01T03:33:33;1.80;;;1.30;;
15938;SDS011;8068;51.322;9.450;2023-04-01T03:35:59;2.67;;;1.33;;
15938;SDS011;8068;51.322;9.450;2023-04-01T03:38:25;2.30;;;1.07;;
15938;SDS011;8068;51.322;9.450;2023-04-01T03:40:51;1.77;;;0.90;;
15938;SDS011;8068;51.322;9.450;2023-04-01T03:43:17;4.07;;;1.20;;
15938;SDS011;8068;51.322;9.450;2023-04-01T03:45:44;3.37;;;1.33;;
15938;SDS011;8068;51.322;9.450;2023-04-01T03:48:11;3.87;;;1.50;;
15938;SDS011;8068;51.322;9.450;2023-04-01T03:50:38;2.17;;;1.13;;
15938;SDS011;8068;51.322;9.450;2023-04-01T03:53:04;2.40;;;1.10;;
15938;SDS011;8068;51.322;9.450;2023-04-01T03:55:30;1.63;;;0.80;;
15938;SDS011;8068;51.322;9.450;2023-04-01T03:57:56;2.27;;;1.20;;
15938;SDS011;8068;51.322;9.450;2023-04-01T04:00:23;1.90;;;1.00;;
15938;SDS011;8068;51.322;9.450;2023-04-01T04:02:49;2.90;;;1.23;;
15938;SDS011;8068;51.322;9.450;2023-04-01T04:05:15;2.80;;;1.00;;
15938;SDS011;8068;51.322;9.450;2023-04-01T04:07:41;2.30;;;1.20;;
15938;SDS011;8068;51.322;9.450;2023-04-01T04:10:07;1.50;;;0.97;;
15938;SDS011;8068;51.322;9.450;2023-04-01T04:12:34;2.40;;;1.30;;
15938;SDS011;8068;51.322;9.450;2023-04-01T04:15:00;3.60;;;1.00;;
15938;SDS011;8068;51.322;9.450;2023-04-01T04:17:26;3.70;;;1.33;;
15938;SDS011;8068;51.322;9.450;2023-04-01T04:19:52;1.37;;;1.10;;
15938;SDS011;8068;51.322;9.450;2023-04-01T04:22:18;2.10;;;1.90;;
15938;SDS011;8068;51.322;9.450;2023-04-01T04:24:44;2.83;;;1.03;;
15938;SDS011;8068;51.322;9.450;2023-04-01T04:27:10;5.67;;;1.60;;
15938;SDS011;8068;51.322;9.450;2023-04-01T04:29:36;3.37;;;1.00;;
15938;SDS011;8068;51.322;9.450;2023-04-01T04:32:02;2.13;;;1.17;;
15938;SDS011;8068;51.322;9.450;2023-04-01T04:34:29;2.80;;;1.20;;
15938;SDS011;8068;51.322;9.450;2023-04-01T04:36:55;2.87;;;1.17;;
15938;SDS011;8068;51.322;9.450;2023-04-01T04:39:21;1.07;;;0.73;;
15938;SDS011;8068;51.322;9.450;2023-04-01T04:41:47;2.30;;;1.00;;
15938;SDS011;8068;51.322;9.450;2023-04-01T04:44:13;2.90;;;1.00;;
15938;SDS011;8068;51.322;9.450;2023-04-01T04:46:39;3.20;;;1.00;;
15938;SDS011;8068;51.322;9.450;2023-04-01T04:49:06;2.33;;;1.00;;
15938;SDS011;8068;51.322;9.450;2023-04-01T04:51:32;2.03;;;0.93;;
15938;SDS011;8068;51.322;9.450;2023-04-01T04:54:02;1.10;;;0.70;;
15938;SDS011;8068;51.322;9.450;2023-04-01T04:56:29;3.37;;;0.70;;
15938;SDS011;8068;51.322;9.450;2023-04-01T04:58:56;1.30;;;1.20;;
15938;SDS011;8068;51.322;9.450;2023-04-01T05:01:22;2.30;;;1.00;;
15938;SDS011;8068;51.322;9.450;2023-04-01T05:03:49;1.63;;;0.83;;
15938;SDS011;8068;51.322;9.450;2023-04-01T05:06:15;3.27;;;0.97;;
15938;SDS011;8068;51.322;9.450;2023-04-01T05:08:42;1.57;;;0.80;;
15938;SDS011;8068;51.322;9.450;2023-04-01T05:11:10;2.13;;;0.73;;
15938;SDS011;8068;51.322;9.450;2023-04-01T05:13:39;4.20;;;1.27;;
15938;SDS011;8068;51.322;9.450;2023-04-01T05:16:09;1.60;;;1.00;;
15938;SDS011;8068;51.322;9.450;2023-04-01T05:18:36;5.07;;;1.20;;
15938;SDS011;8068;51.322;9.450;2023-04-01T05:21:02;3.53;;;1.03;;
15938;SDS011;8068;51.322;9.450;2023-04-01T05:23:30;1.40;;;0.93;;
15938;SDS011;8068;51.322;9.450;2023-04-01T05:25:57;1.90;;;1.10;;
15938;SDS011;8068;51.322;9.450;2023-04-01T05:28:23;2.13;;;1.07;;
15938;SDS011;8068;51.322;9.450;2023-04-01T05:30:49;4.13;;;0.90;;
15938;SDS011;8068;51.322;9.450;2023-04-01T05:33:16;1.40;;;1.00;;
15938;SDS011;8068;51.322;9.450;2023-04-01T05:35:42;1.17;;;0.97;;
15938;SDS011;8068;51.322;9.450;2023-04-01T05:38:08;1.97;;;1.00;;
15938;SDS011;8068;51.322;9.450;2023-04-01T05:40:34;2.57;;;0.80;;
15938;SDS011;8068;51.322;9.450;2023-04-01T05:43:01;3.43;;;1.27;;
15938;SDS011;8068;51.322;9.450;2023-04-01T05:45:27;1.40;;;1.03;;
15938;SDS011;8068;51.322;9.450;2023-04-01T05:47:53;3.43;;;1.27;;
15938;SDS011;8068;51.322;9.450;2023-04-01T05:50:19;5.00;;;1.03;;
15938;SDS011;8068;51.322;9.450;2023-04-01T05:52:45;4.20;;;0.80;;
15938;SDS011;8068;51.322;9.450;2023-04-01T05:55:11;2.10;;;1.40;;
15938;SDS011;8068;51.322;9.450;2023-04-01T05:57:38;2.50;;;0.97;;
15938;SDS011;8068;51.322;9.450;2023-04-01T06:00:04;2.00;;;0.97;;
15938;SDS011;8068;51.322;9.450;2023-04-01T06:02:31;5.27;;;1.13;;
15938;SDS011;8068;51.322;9.450;2023-04-01T06:05:02;1.83;;;0.90;;
15938;SDS011;8068;51.322;9.450;2023-04-01T06:07:55;1.40;;;0.70;;
15938;SDS011;8068;51.322;9.450;2023-04-01T06:19:07;1.73;;;0.97;;
15938;SDS011;8068;51.322;9.450;2023-04-01T06:24:41;3.80;;;1.50;;
15938;SDS011;8068;51.322;9.450;2023-04-01T06:35:17;2.40;;;0.80;;
15938;SDS011;8068;51.322;9.450;2023-04-01T06:49:02;1.87;;;1.03;;
15938;SDS011;8068;51.322;9.450;2023-04-01T06:54:38;2.60;;;1.10;;
15938;SDS011;8068;51.322;9.450;2023-04-01T06:57:18;1.97;;;1.10;;
15938;SDS011;8068;51.322;9.450;2023-04-01T06:59:48;6.93;;;1.00;;
15938;SDS011;8068;51.322;9.450;2023-04-01T07:05:04;1.60;;;0.90;;
15938;SDS011;8068;51.322;9.450;2023-04-01T07:07:45;1.00;;;0.60;;
15938;SDS011;8068;51.322;9.450;2023-04-01T07:10:16;3.10;;;0.70;;
15938;SDS011;8068;51.322;9.450;2023-04-01T07:12:48;4.10;;;1.00;;
15938;SDS011;8068;51.322;9.450;2023-04-01T07:15:17;2.40;;;0.80;;
15938;SDS011;8068;51.322;9.450;2023-04-01T07:17:44;1.07;;;0.80;;
15938;SDS011;8068;51.322;9.450;2023-04-01T07:20:20;1.20;;;0.60;;
15938;SDS011;8068;51.322;9.450;2023-04-01T07:22:52;1.10;;;0.80;;
15938;SDS011;8068;51.322;9.450;2023-04-01T07:25:22;1.57;;;0.67;;
15938;SDS011;8068;51.322;9.450;2023-04-01T07:28:15;1.53;;;0.90;;
15938;SDS011;8068;51.322;9.450;2023-04-01T07:30:49;1.33;;;0.60;;
15938;SDS011;8068;51.322;9.450;2023-04-01T07:33:44;2.10;;;0.77;;
15938;SDS011;8068;51.322;9.450;2023-04-01T07:36:26;1.63;;;0.70;;
15938;SDS011;8068;51.322;9.450;2023-04-01T07:44:34;1.27;;;0.70;;
15938;SDS011;8068;51.322;9.450;2023-04-01T07:47:11;2.60;;;0.80;;
15938;SDS011;8068;51.322;9.450;2023-04-01T07:49:56;1.10;;;0.63;;
15938;SDS011;8068;51.322;9.450;2023-04-01T08:06:25;4.03;;;0.70;;
15938;SDS011;8068;51.322;9.450;2023-04-01T08:11:35;1.47;;;0.60;;
15938;SDS011;8068;51.322;9.450;2023-04-01T08:14:20;1.30;;;0.63;;
15938;SDS011;8068;51.322;9.450;2023-04-01T08:19:48;1.10;;;0.60;;
15938;SDS011;8068;51.322;9.450;2023-04-01T08:22:25;1.77;;;0.80;;
15938;SDS011;8068;51.322;9.450;2023-04-01T08:24:54;2.20;;;0.70;;
15938;SDS011;8068;51.322;9.450;2023-04-01T08:27:26;0.90;;;0.50;;
15938;SDS011;8068;51.322;9.450;2023-04-01T08:32:44;4.73;;;0.60;;
15938;SDS011;8068;51.322;9.450;2023-04-01T08:35:39;0.93;;;0.57;;
15938;SDS011;8068;51.322;9.450;2023-04-01T08:38:29;1.10;;;0.60;;
15938;SDS011;8068;51.322;9.450;2023-04-01T08:40:59;2.80;;;0.70;;
15938;SDS011;8068;51.322;9.450;2023-04-01T08:46:33;1.00;;;0.60;;
15938;SDS011;8068;51.322;9.450;2023-04-01T08:51:48;1.33;;;0.80;;
15938;SDS011;8068;51.322;9.450;2023-04-01T09:02:12;1.50;;;0.57;;
15938;SDS011;8068;51.322;9.450;2023-04-01T09:07:32;1.03;;;0.60;;
15938;SDS011;8068;51.322;9.450;2023-04-01T09:15:16;1.00;;;0.50;;
15938;SDS011;8068;51.322;9.450;2023-04-01T09:21:04;0.90;;;0.50;;
15938;SDS011;8068;51.322;9.450;2023-04-01T09:29:42;1.17;;;0.40;;
15938;SDS011;8068;51.322;9.450;2023-04-01T09:45:58;1.00;;;0.60;;
15938;SDS011;8068;51.322;9.450;2023-04-01T10:08:25;1.10;;;0.60;;
15938;SDS011;8068;51.322;9.450;2023-04-01T10:27:58;1.60;;;0.77;;
15938;SDS011;8068;51.322;9.450;2023-04-01T10:30:56;1.47;;;0.80;;
15938;SDS011;8068;51.322;9.450;2023-04-01T10:39:29;1.43;;;0.70;;
15938;SDS011;8068;51.322;9.450;2023-04-01T10:47:47;1.93;;;0.70;;
15938;SDS011;8068;51.322;9.450;2023-04-01T11:27:10;1.27;;;0.60;;
15938;SDS011;8068;51.322;9.450;2023-04-01T11:43:16;1.40;;;0.53;;
15938;SDS011;8068;51.322;9.450;2023-04-01T11:46:04;1.40;;;0.60;;
15938;SDS011;8068;51.322;9.450;2023-04-01T11:48:47;4.63;;;0.60;;
15938;SDS011;8068;51.322;9.450;2023-04-01T12:02:23;1.40;;;0.60;;
15938;SDS011;8068;51.322;9.450;2023-04-01T12:07:55;0.80;;;0.40;;
15938;SDS011;8068;51.322;9.450;2023-04-01T12:10:38;0.90;;;0.50;;
15938;SDS011;8068;51.322;9.450;2023-04-01T12:16:02;0.80;;;0.50;;
15938;SDS011;8068;51.322;9.450;2023-04-01T12:18:52;1.40;;;0.50;;
15938;SDS011;8068;51.322;9.450;2023-04-01T12:21:27;1.00;;;0.50;;
15938;SDS011;8068;51.322;9.450;2023-04-01T12:40:23;2.43;;;0.50;;
15938;SDS011;8068;51.322;9.450;2023-04-01T12:46:02;0.90;;;0.60;;
15938;SDS011;8068;51.322;9.450;2023-04-01T13:03:23;1.30;;;0.70;;
15938;SDS011;8068;51.322;9.450;2023-04-01T13:09:17;0.90;;;0.50;;
15938;SDS011;8068;51.322;9.450;2023-04-01T13:27:51;0.87;;;0.50;;
15938;SDS011;8068;51.322;9.450;2023-04-01T13:38:55;1.00;;;0.60;;
15938;SDS011;8068;51.322;9.450;2023-04-01T13:41:39;0.90;;;0.60;;
15938;SDS011;8068;51.322;9.450;2023-04-01T13:44:20;1.60;;;0.70;;
15938;SDS011;8068;51.322;9.450;2023-04-01T13:46:57;1.10;;;1.00;;
15938;SDS011;8068;51.322;9.450;2023-04-01T14:03:54;0.90;;;0.50;;
15938;SDS011;8068;51.322;9.450;2023-04-01T14:06:53;1.23;;;1.10;;
15938;SDS011;8068;51.322;9.450;2023-04-01T14:17:46;1.20;;;0.40;;
15938;SDS011;8068;51.322;9.450;2023-04-01T14:23:17;2.43;;;0.43;;
15938;SDS011;8068;51.322;9.450;2023-04-01T14:26:26;0.90;;;0.60;;
15938;SDS011;8068;51.322;9.450;2023-04-01T14:32:10;0.97;;;0.70;;
15938;SDS011;8068;51.322;9.450;2023-04-01T14:48:56;1.20;;;0.70;;
15938;SDS011;8068;51.322;9.450;2023-04-01T14:51:36;1.10;;;0.80;;
15938;SDS011;8068;51.322;9.450;2023-04-01T14:54:16;0.93;;;0.83;;
15938;SDS011;8068;51.322;9.450;2023-04-01T15:00:09;0.90;;;0.60;;
15938;SDS011;8068;51.322;9.450;2023-04-01T15:08:00;2.20;;;2.10;;
15938;SDS011;8068;51.322;9.450;2023-04-01T15:10:53;1.20;;;1.00;;
15938;SDS011;8068;51.322;9.450;2023-04-01T15:16:46;1.10;;;1.00;;
15938;SDS011;8068;51.322;9.450;2023-04-01T15:19:38;1.90;;;1.80;;
15938;SDS011;8068;51.322;9.450;2023-04-01T15:27:37;2.70;;;2.60;;
15938;SDS011;8068;51.322;9.450;2023-04-01T15:32:49;2.13;;;1.63;;
15938;SDS011;8068;51.322;9.450;2023-04-01T15:35:29;1.10;;;1.00;;
15938;SDS011;8068;51.322;9.450;2023-04-01T15:38:21;1.97;;;1.30;;
15938;SDS011;8068;51.322;9.450;2023-04-01T15:44:41;2.87;;;2.77;;
15938;SDS011;8068;51.322;9.450;2023-04-01T15:47:37;3.43;;;3.23;;
15938;SDS011;8068;51.322;9.450;2023-04-01T15:50:35;4.13;;;3.20;;
15938;SDS011;8068;51.322;9.450;2023-04-01T15:56:26;1.97;;;1.70;;
15938;SDS011;8068;51.322;9.450;2023-04-01T16:02:32;1.30;;;1.20;;
15938;SDS011;8068;51.322;9.450;2023-04-01T16:21:40;1.27;;;1.17;;
15938;SDS011;8068;51.322;9.450;2023-04-01T16:24:30;1.47;;;1.37;;
15938;SDS011;8068;51.322;9.450;2023-04-01T16:30:03;2.00;;;1.90;;
15938;SDS011;8068;51.322;9.450;2023-04-01T16:35:43;4.87;;;3.60;;
15938;SDS011;8068;51.322;9.450;2023-04-01T16:41:12;2.50;;;2.40;;
15938;SDS011;8068;51.322;9.450;2023-04-01T16:43:56;2.60;;;2.47;;
15938;SDS011;8068;51.322;9.450;2023-04-01T16:46:58;1.73;;;1.63;;
15938;SDS011;8068;51.322;9.450;2023-04-01T16:49:41;2.30;;;2.20;;
15938;SDS011;8068;51.322;9.450;2023-04-01T16:52:14;2.70;;;2.50;;
15938;SDS011;8068;51.322;9.450;2023-04-01T16:54:55;2.10;;;2.00;;
15938;SDS011;8068;51.322;9.450;2023-04-01T16:57:31;1.97;;;1.87;;
15938;SDS011;8068;51.322;9.450;2023-04-01T17:02:58;5.67;;;2.03;;
15938;SDS011;8068;51.322;9.450;2023-04-01T17:11:16;3.10;;;2.87;;
15938;SDS011;8068;51.322;9.450;2023-04-01T17:13:56;2.80;;;2.70;;
15938;SDS011;8068;51.322;9.450;2023-04-01T17:24:54;3.53;;;3.37;;
15938;SDS011;8068;51.322;9.450;2023-04-01T17:27:59;3.23;;;3.13;;
15938;SDS011;8068;51.322;9.450;2023-04-01T17:39:47;2.20;;;2.10;;
15938;SDS011;8068;51.322;9.450;2023-04-01T17:48:03;2.10;;;2.00;;
15938;SDS011;8068;51.322;9.450;2023-04-01T17:50:47;1.87;;;1.77;;
15938;SDS011;8068;51.322;9.450;2023-04-01T17:59:28;1.80;;;1.70;;
15938;SDS011;8068;51.322;9.450;2023-04-01T18:02:19;2.07;;;1.77;;
15938;SDS011;8068;51.322;9.450;2023-04-01T18:10:40;1.70;;;1.43;;
15938;SDS011;8068;51.322;9.450;2023-04-01T18:16:39;1.57;;;1.47;;
15938;SDS011;8068;51.322;9.450;2023-04-01T18:25:55;2.20;;;2.10;;
15938;SDS011;8068;51.322;9.450;2023-04-01T18:53:53;3.83;;;3.40;;
15938;SDS011;8068;51.322;9.450;2023-04-01T18:56:43;3.33;;;2.83;;
15938;SDS011;8068;51.322;9.450;2023-04-01T18:59:18;5.13;;;3.43;;
15938;SDS011;8068;51.322;9.450;2023-04-01T19:02:18;3.60;;;3.40;;
15938;SDS011;8068;51.322;9.450;2023-04-01T19:05:13;5.90;;;5.50;;
15938;SDS011;8068;51.322;9.450;2023-04-01T19:11:20;6.77;;;6.10;;
15938;SDS011;8068;51.322;9.450;2023-04-01T19:14:15;6.60;;;5.97;;
15938;SDS011;8068;51.322;9.450;2023-04-01T19:19:46;3.30;;;3.20;;
15938;SDS011;8068;51.322;9.450;2023-04-01T19:27:42;3.67;;;3.47;;
15938;SDS011;8068;51.322;9.450;2023-04-01T19:36:11;3.73;;;3.63;;
15938;SDS011;8068;51.322;9.450;2023-04-01T19:42:11;3.30;;;3.20;;
15938;SDS011;8068;51.322;9.450;2023-04-01T19:56:39;3.63;;;3.33;;
15938;SDS011;8068;51.322;9.450;2023-04-01T20:04:44;2.87;;;2.77;;
15938;SDS011;8068;51.322;9.450;2023-04-01T20:07:34;2.57;;;2.47;;
15938;SDS011;8068;51.322;9.450;2023-04-01T20:10:09;3.10;;;2.90;;
15938;SDS011;8068;51.322;9.450;2023-04-01T20:15:31;4.83;;;2.93;;
15938;SDS011;8068;51.322;9.450;2023-04-01T20:18:23;2.60;;;2.50;;
15938;SDS011;8068;51.322;9.450;2023-04-01T20:21:02;3.10;;;3.00;;
15938;SDS011;8068;51.322;9.450;2023-04-01T20:23:45;3.90;;;3.70;;
15938;SDS011;8068;51.322;9.450;2023-04-01T20:26:26;4.03;;;3.90;;
15938;SDS011;8068;51.322;9.450;2023-04-01T20:45:41;3.00;;;2.90;;
15938;SDS011;8068;51.322;9.450;2023-04-01T20:50:58;4.37;;;4.20;;
15938;SDS011;8068;51.322;9.450;2023-04-01T21:00:11;6.20;;;5.90;;
15938;SDS011;8068;51.322;9.450;2023-04-01T21:07:49;3.80;;;3.70;;
15938;SDS011;8068;51.322;9.450;2023-04-01T21:21:43;2.67;;;2.57;;
15938;SDS011;8068;51.322;9.450;2023-04-01T21:29:51;2.77;;;2.67;;
15938;SDS011;8068;51.322;9.450;2023-04-01T21:32:33;2.67;;;2.57;;
15938;SDS011;8068;51.322;9.450;2023-04-01T21:35:23;3.07;;;2.87;;
15938;SDS011;8068;51.322;9.450;2023-04-01T21:54:56;0.90;;;0.70;;
15938;SDS011;8068;51.322;9.450;2023-04-01T22:01:02;0.90;;;0.60;;
15938;SDS011;8068;51.322;9.450;2023-04-01T22:08:58;0.90;;;0.67;;
15938;SDS011;8068;51.322;9.450;2023-04-01T22:25:45;2.20;;;1.30;;
15938;SDS011;8068;51.322;9.450;2023-04-01T22:28:25;1.47;;;1.37;;
15938;SDS011;8068;51.322;9.450;2023-04-01T22:31:01;1.20;;;1.03;;
15938;SDS011;8068;51.322;9.450;2023-04-01T22:42:01;1.43;;;1.33;;
15938;SDS011;8068;51.322;9.450;2023-04-01T22:44:35;1.33;;;1.23;;
15938;SDS011;8068;51.322;9.450;2023-04-01T22:47:09;1.30;;;1.20;;
15938;SDS011;8068;51.322;9.450;2023-04-01T22:49:51;1.37;;;1.27;;
15938;SDS011;8068;51.322;9.450;2023-04-01T22:55:12;1.30;;;1.20;;
15938;SDS011;8068;51.322;9.450;2023-04-01T23:00:25;1.10;;;1.00;;
15938;SDS011;8068;51.322;9.450;2023-04-01T23:03:16;1.13;;;1.03;;
15938;SDS011;8068;51.322;9.450;2023-04-01T23:05:57;1.40;;;1.30;;
15938;SDS011;8068;51.322;9.450;2023-04-01T23:11:26;1.00;;;0.90;;
15938;SDS011;8068;51.322;9.450;2023-04-01T23:16:39;0.80;;;0.60;;
15938;SDS011;8068;51.322;9.450;2023-04-01T23:19:19;3.00;;;0.80;;
15938;SDS011;8068;51.322;9.450;2023-04-01T23:22:21;1.93;;;0.67;;
15938;SDS011;8068;51.322;9.450;2023-04-01T23:38:40;0.80;;;0.57;;
15938;SDS011;8068;51.322;9.450;2023-04-01T23:41:19;0.87;;;0.57;;
15938;SDS011;8068;51.322;9.450;2023-04-01T23:44:03;0.80;;;0.50;;
15938;SDS011;8068;51.322;9.450;2023-04-01T23:46:36;0.80;;;0.50;;
15938;SDS011;8068;51.322;9.450;2023-04-01T23:49:11;0.90;;;0.70;;
15938;SDS011;8068;51.322;9.450;2023-04-01T23:51:54;1.10;;;0.60;;
15938;SDS011;8068;51.322;9.450;2023-04-01T23:54:33;0.90;;;0.60;;
15938;SDS011;8068;51.322;9.450;2023-04-01T23:57:09;0.80;;;0.60;;
15938;SDS011;8068;51.322;9.450;2023-04-01T23:59:42;1.03;;;0.60;;
